sensor_id;sensor_type;location;lat;lon;timestamp;P1;durP1;ratioP1;P2;durP2;ratioP2
49502;SDS011;35409;48.776;9.204;2022-11-15T00:00:45;6.75;;;4.68;;
49502;SDS011;35409;48.776;9.204;2022-11-15T00:03:15;7.68;;;4.45;;
49502;SDS011;35409;48.776;9.204;2022-11-15T00:05:48;8.68;;;5.53;;
49502;SDS011;35409;48.776;9.204;2022-11-15T00:08:14;7.57;;;5.05;;
49502;SDS011;35409;48.776;9.204;2022-11-15T00:10:40;7.10;;;4.50;;
49502;SDS011;35409;48.776;9.204;2022-11-15T00:13:09;6.60;;;3.70;;
49502;SDS011;35409;48.776;9.204;2022-11-15T00:15:37;4.68;;;3.75;;
49502;SDS011;35409;48.776;9.204;2022-11-15T00:18:04;6.43;;;4.15;;
49502;SDS011;35409;48.776;9.204;2022-11-15T00:20:33;7.22;;;4.45;;
49502;SDS011;35409;48.776;9.204;2022-11-15T00:22:58;6.30;;;3.80;;
49502;SDS011;35409;48.776;9.204;2022-11-15T00:25:24;7.55;;;4.25;;
49502;SDS011;35409;48.776;9.204;2022-11-15T00:27:50;7.38;;;3.65;;
49502;SDS011;35409;48.776;9.204;2022-11-15T00:30:19;4.70;;;3.17;;
49502;SDS011;35409;48.776;9.204;2022-11-15T00:32:45;5.07;;;3.42;;
49502;SDS011;35409;48.776;9.204;2022-11-15T00:35:10;6.55;;;3.83;;
49502;SDS011;35409;48.776;9.204;2022-11-15T00:37:36;7.15;;;4.60;;
49502;SDS011;35409;48.776;9.204;2022-11-15T00:40:01;6.80;;;4.65;;
49502;SDS011;35409;48.776;9.204;2022-11-15T00:42:27;8.73;;;3.30;;
49502;SDS011;35409;48.776;9.204;2022-11-15T00:44:52;7.50;;;4.40;;
49502;SDS011;35409;48.776;9.204;2022-11-15T00:47:18;8.32;;;4.85;;
49502;SDS011;35409;48.776;9.204;2022-11-15T00:49:44;8.55;;;4.75;;
49502;SDS011;35409;48.776;9.204;2022-11-15T00:52:09;5.97;;;4.13;;
49502;SDS011;35409;48.776;9.204;2022-11-15T00:54:35;7.53;;;4.43;;
49502;SDS011;35409;48.776;9.204;2022-11-15T00:57:00;7.85;;;4.03;;
49502;SDS011;35409;48.776;9.204;2022-11-15T00:59:26;5.28;;;3.90;;
49502;SDS011;35409;48.776;9.204;2022-11-15T01:01:51;6.72;;;3.88;;
49502;SDS011;35409;48.776;9.204;2022-11-15T01:04:17;7.03;;;3.90;;
49502;SDS011;35409;48.776;9.204;2022-11-15T01:06:43;5.97;;;3.95;;
49502;SDS011;35409;48.776;9.204;2022-11-15T01:09:08;5.28;;;3.90;;
49502;SDS011;35409;48.776;9.204;2022-11-15T01:11:34;7.13;;;3.95;;
49502;SDS011;35409;48.776;9.204;2022-11-15T01:13:59;6.75;;;4.15;;
49502;SDS011;35409;48.776;9.204;2022-11-15T01:16:25;6.25;;;4.05;;
49502;SDS011;35409;48.776;9.204;2022-11-15T01:18:51;7.47;;;3.60;;
49502;SDS011;35409;48.776;9.204;2022-11-15T01:21:17;6.28;;;3.67;;
49502;SDS011;35409;48.776;9.204;2022-11-15T01:23:44;6.75;;;4.25;;
49502;SDS011;35409;48.776;9.204;2022-11-15T01:26:10;6.47;;;3.88;;
49502;SDS011;35409;48.776;9.204;2022-11-15T01:28:39;6.57;;;4.00;;
49502;SDS011;35409;48.776;9.204;2022-11-15T01:31:08;5.05;;;3.42;;
49502;SDS011;35409;48.776;9.204;2022-11-15T01:33:37;6.75;;;3.85;;
49502;SDS011;35409;48.776;9.204;2022-11-15T01:36:07;6.95;;;3.83;;
49502;SDS011;35409;48.776;9.204;2022-11-15T01:38:35;5.32;;;3.58;;
49502;SDS011;35409;48.776;9.204;2022-11-15T01:41:00;6.55;;;3.63;;
49502;SDS011;35409;48.776;9.204;2022-11-15T01:43:30;5.38;;;3.85;;
49502;SDS011;35409;48.776;9.204;2022-11-15T01:46:00;6.97;;;3.17;;
49502;SDS011;35409;48.776;9.204;2022-11-15T01:48:32;7.38;;;3.55;;
49502;SDS011;35409;48.776;9.204;2022-11-15T01:50:59;9.32;;;3.08;;
49502;SDS011;35409;48.776;9.204;2022-11-15T01:53:29;4.70;;;3.08;;
49502;SDS011;35409;48.776;9.204;2022-11-15T01:55:56;5.43;;;2.65;;
49502;SDS011;35409;48.776;9.204;2022-11-15T01:58:23;4.47;;;2.75;;
49502;SDS011;35409;48.776;9.204;2022-11-15T02:00:49;5.85;;;3.10;;
49502;SDS011;35409;48.776;9.204;2022-11-15T02:03:16;3.50;;;2.50;;
49502;SDS011;35409;48.776;9.204;2022-11-15T02:05:41;4.47;;;2.53;;
49502;SDS011;35409;48.776;9.204;2022-11-15T02:08:08;2.85;;;2.28;;
49502;SDS011;35409;48.776;9.204;2022-11-15T02:10:44;6.88;;;2.72;;
49502;SDS011;35409;48.776;9.204;2022-11-15T02:13:14;3.95;;;2.30;;
49502;SDS011;35409;48.776;9.204;2022-11-15T02:15:52;3.88;;;2.45;;
49502;SDS011;35409;48.776;9.204;2022-11-15T02:18:32;4.45;;;2.55;;
49502;SDS011;35409;48.776;9.204;2022-11-15T02:21:09;3.50;;;2.42;;
49502;SDS011;35409;48.776;9.204;2022-11-15T02:29:35;4.57;;;2.72;;
49502;SDS011;35409;48.776;9.204;2022-11-15T02:32:15;3.83;;;2.47;;
49502;SDS011;35409;48.776;9.204;2022-11-15T02:37:16;5.32;;;3.05;;
49502;SDS011;35409;48.776;9.204;2022-11-15T02:42:39;5.53;;;2.90;;
49502;SDS011;35409;48.776;9.204;2022-11-15T02:45:29;5.05;;;2.88;;
49502;SDS011;35409;48.776;9.204;2022-11-15T02:47:57;4.07;;;2.97;;
49502;SDS011;35409;48.776;9.204;2022-11-15T02:50:27;4.30;;;2.58;;
49502;SDS011;35409;48.776;9.204;2022-11-15T02:52:55;3.63;;;2.70;;
49502;SDS011;35409;48.776;9.204;2022-11-15T02:55:28;5.90;;;2.72;;
49502;SDS011;35409;48.776;9.204;2022-11-15T03:01:46;3.05;;;2.67;;
49502;SDS011;35409;48.776;9.204;2022-11-15T03:03:54;4.90;;;3.13;;
49502;SDS011;35409;48.776;9.204;2022-11-15T03:06:53;4.57;;;2.75;;
49502;SDS011;35409;48.776;9.204;2022-11-15T03:17:29;4.60;;;2.90;;
49502;SDS011;35409;48.776;9.204;2022-11-15T03:20:01;4.38;;;3.03;;
49502;SDS011;35409;48.776;9.204;2022-11-15T03:22:33;4.00;;;2.88;;
49502;SDS011;35409;48.776;9.204;2022-11-15T03:25:02;9.43;;;3.50;;
49502;SDS011;35409;48.776;9.204;2022-11-15T03:27:33;4.28;;;3.33;;
49502;SDS011;35409;48.776;9.204;2022-11-15T03:30:04;4.82;;;3.08;;
49502;SDS011;35409;48.776;9.204;2022-11-15T03:32:33;6.35;;;3.22;;
49502;SDS011;35409;48.776;9.204;2022-11-15T03:35:10;4.32;;;2.80;;
49502;SDS011;35409;48.776;9.204;2022-11-15T03:40:11;7.10;;;3.30;;
49502;SDS011;35409;48.776;9.204;2022-11-15T03:48:21;5.72;;;2.95;;
49502;SDS011;35409;48.776;9.204;2022-11-15T03:50:49;5.88;;;2.88;;
49502;SDS011;35409;48.776;9.204;2022-11-15T03:53:16;6.00;;;3.30;;
49502;SDS011;35409;48.776;9.204;2022-11-15T03:55:42;6.45;;;2.70;;
49502;SDS011;35409;48.776;9.204;2022-11-15T03:58:07;4.90;;;2.78;;
49502;SDS011;35409;48.776;9.204;2022-11-15T04:00:33;6.35;;;2.83;;
49502;SDS011;35409;48.776;9.204;2022-11-15T04:02:59;3.88;;;2.50;;
49502;SDS011;35409;48.776;9.204;2022-11-15T04:05:24;5.55;;;3.20;;
49502;SDS011;35409;48.776;9.204;2022-11-15T04:07:50;4.80;;;3.33;;
49502;SDS011;35409;48.776;9.204;2022-11-15T04:10:15;6.43;;;3.40;;
49502;SDS011;35409;48.776;9.204;2022-11-15T04:12:42;6.75;;;3.58;;
49502;SDS011;35409;48.776;9.204;2022-11-15T04:15:13;4.43;;;2.78;;
49502;SDS011;35409;48.776;9.204;2022-11-15T04:20:11;7.68;;;3.15;;
49502;SDS011;35409;48.776;9.204;2022-11-15T04:22:57;4.82;;;3.35;;
49502;SDS011;35409;48.776;9.204;2022-11-15T04:25:42;6.18;;;3.10;;
49502;SDS011;35409;48.776;9.204;2022-11-15T04:28:09;12.20;;;3.92;;
49502;SDS011;35409;48.776;9.204;2022-11-15T04:30:36;6.40;;;3.67;;
49502;SDS011;35409;48.776;9.204;2022-11-15T04:33:02;6.80;;;3.50;;
49502;SDS011;35409;48.776;9.204;2022-11-15T04:35:28;4.20;;;3.20;;
49502;SDS011;35409;48.776;9.204;2022-11-15T04:37:55;7.20;;;3.13;;
49502;SDS011;35409;48.776;9.204;2022-11-15T04:40:21;5.55;;;3.22;;
49502;SDS011;35409;48.776;9.204;2022-11-15T04:42:47;5.25;;;3.90;;
49502;SDS011;35409;48.776;9.204;2022-11-15T04:45:13;8.07;;;4.45;;
49502;SDS011;35409;48.776;9.204;2022-11-15T04:47:38;8.10;;;4.45;;
49502;SDS011;35409;48.776;9.204;2022-11-15T04:50:04;5.80;;;3.67;;
49502;SDS011;35409;48.776;9.204;2022-11-15T04:52:30;5.38;;;3.03;;
49502;SDS011;35409;48.776;9.204;2022-11-15T04:54:56;5.07;;;3.30;;
49502;SDS011;35409;48.776;9.204;2022-11-15T04:57:21;6.40;;;3.13;;
49502;SDS011;35409;48.776;9.204;2022-11-15T04:59:47;6.47;;;3.35;;
49502;SDS011;35409;48.776;9.204;2022-11-15T05:02:12;5.13;;;3.25;;
49502;SDS011;35409;48.776;9.204;2022-11-15T05:04:38;4.07;;;2.72;;
49502;SDS011;35409;48.776;9.204;2022-11-15T05:07:04;5.45;;;3.30;;
49502;SDS011;35409;48.776;9.204;2022-11-15T05:09:30;5.10;;;3.30;;
49502;SDS011;35409;48.776;9.204;2022-11-15T05:11:55;5.53;;;2.92;;
49502;SDS011;35409;48.776;9.204;2022-11-15T05:14:21;7.15;;;3.67;;
49502;SDS011;35409;48.776;9.204;2022-11-15T05:16:47;6.38;;;3.17;;
49502;SDS011;35409;48.776;9.204;2022-11-15T05:19:12;3.97;;;2.90;;
49502;SDS011;35409;48.776;9.204;2022-11-15T05:21:38;5.15;;;3.22;;
49502;SDS011;35409;48.776;9.204;2022-11-15T05:24:04;4.20;;;2.83;;
49502;SDS011;35409;48.776;9.204;2022-11-15T05:26:30;4.93;;;3.10;;
49502;SDS011;35409;48.776;9.204;2022-11-15T05:28:56;6.00;;;3.25;;
49502;SDS011;35409;48.776;9.204;2022-11-15T05:31:23;3.60;;;2.97;;
49502;SDS011;35409;48.776;9.204;2022-11-15T05:33:50;6.20;;;3.20;;
49502;SDS011;35409;48.776;9.204;2022-11-15T05:36:31;3.65;;;2.83;;
49502;SDS011;35409;48.776;9.204;2022-11-15T05:39:05;4.68;;;3.20;;
49502;SDS011;35409;48.776;9.204;2022-11-15T05:41:33;6.47;;;3.63;;
49502;SDS011;35409;48.776;9.204;2022-11-15T05:44:02;9.68;;;4.25;;
49502;SDS011;35409;48.776;9.204;2022-11-15T05:46:30;5.43;;;3.20;;
49502;SDS011;35409;48.776;9.204;2022-11-15T05:48:57;7.68;;;3.67;;
49502;SDS011;35409;48.776;9.204;2022-11-15T05:51:23;5.40;;;3.47;;
49502;SDS011;35409;48.776;9.204;2022-11-15T05:53:49;7.35;;;3.95;;
49502;SDS011;35409;48.776;9.204;2022-11-15T05:56:16;6.43;;;3.70;;
49502;SDS011;35409;48.776;9.204;2022-11-15T05:58:42;5.88;;;3.60;;
49502;SDS011;35409;48.776;9.204;2022-11-15T06:01:08;8.45;;;4.03;;
49502;SDS011;35409;48.776;9.204;2022-11-15T06:03:34;5.18;;;3.95;;
49502;SDS011;35409;48.776;9.204;2022-11-15T06:05:59;5.05;;;3.20;;
49502;SDS011;35409;48.776;9.204;2022-11-15T06:08:25;5.18;;;3.08;;
49502;SDS011;35409;48.776;9.204;2022-11-15T06:10:50;5.43;;;3.65;;
49502;SDS011;35409;48.776;9.204;2022-11-15T06:13:16;5.35;;;3.78;;
49502;SDS011;35409;48.776;9.204;2022-11-15T06:15:42;7.15;;;3.80;;
49502;SDS011;35409;48.776;9.204;2022-11-15T06:18:07;4.50;;;3.13;;
49502;SDS011;35409;48.776;9.204;2022-11-15T06:20:33;4.68;;;3.35;;
49502;SDS011;35409;48.776;9.204;2022-11-15T06:23:03;6.88;;;3.03;;
49502;SDS011;35409;48.776;9.204;2022-11-15T06:25:30;7.05;;;3.17;;
49502;SDS011;35409;48.776;9.204;2022-11-15T06:27:56;6.55;;;3.00;;
49502;SDS011;35409;48.776;9.204;2022-11-15T06:30:23;7.60;;;3.85;;
49502;SDS011;35409;48.776;9.204;2022-11-15T06:32:50;9.30;;;3.60;;
49502;SDS011;35409;48.776;9.204;2022-11-15T06:35:16;5.22;;;3.63;;
49502;SDS011;35409;48.776;9.204;2022-11-15T06:37:42;5.57;;;3.10;;
49502;SDS011;35409;48.776;9.204;2022-11-15T06:40:08;5.75;;;3.28;;
49502;SDS011;35409;48.776;9.204;2022-11-15T06:42:35;5.72;;;3.28;;
49502;SDS011;35409;48.776;9.204;2022-11-15T06:45:00;5.78;;;3.30;;
49502;SDS011;35409;48.776;9.204;2022-11-15T06:47:26;6.13;;;2.92;;
49502;SDS011;35409;48.776;9.204;2022-11-15T06:49:52;5.20;;;3.53;;
49502;SDS011;35409;48.776;9.204;2022-11-15T06:52:17;7.30;;;3.80;;
49502;SDS011;35409;48.776;9.204;2022-11-15T06:54:44;7.70;;;4.18;;
49502;SDS011;35409;48.776;9.204;2022-11-15T06:57:10;7.15;;;4.30;;
49502;SDS011;35409;48.776;9.204;2022-11-15T06:59:36;5.40;;;3.97;;
49502;SDS011;35409;48.776;9.204;2022-11-15T07:02:02;11.68;;;6.15;;
49502;SDS011;35409;48.776;9.204;2022-11-15T07:04:27;9.02;;;5.13;;
49502;SDS011;35409;48.776;9.204;2022-11-15T07:06:53;8.30;;;4.85;;
49502;SDS011;35409;48.776;9.204;2022-11-15T07:09:19;7.50;;;4.55;;
49502;SDS011;35409;48.776;9.204;2022-11-15T07:11:44;5.28;;;3.72;;
49502;SDS011;35409;48.776;9.204;2022-11-15T07:14:10;7.35;;;3.97;;
49502;SDS011;35409;48.776;9.204;2022-11-15T07:16:36;7.80;;;3.92;;
49502;SDS011;35409;48.776;9.204;2022-11-15T07:19:02;5.93;;;3.58;;
49502;SDS011;35409;48.776;9.204;2022-11-15T07:21:27;6.05;;;3.40;;
49502;SDS011;35409;48.776;9.204;2022-11-15T07:23:53;5.95;;;3.13;;
49502;SDS011;35409;48.776;9.204;2022-11-15T07:26:19;4.70;;;2.90;;
49502;SDS011;35409;48.776;9.204;2022-11-15T07:28:45;6.32;;;3.20;;
49502;SDS011;35409;48.776;9.204;2022-11-15T07:31:10;6.00;;;3.20;;
49502;SDS011;35409;48.776;9.204;2022-11-15T07:33:36;6.35;;;3.22;;
49502;SDS011;35409;48.776;9.204;2022-11-15T07:36:03;5.22;;;2.50;;
49502;SDS011;35409;48.776;9.204;2022-11-15T07:38:30;11.68;;;5.88;;
49502;SDS011;35409;48.776;9.204;2022-11-15T07:40:59;10.10;;;6.00;;
49502;SDS011;35409;48.776;9.204;2022-11-15T07:43:26;11.57;;;6.72;;
49502;SDS011;35409;48.776;9.204;2022-11-15T07:45:52;13.50;;;7.18;;
49502;SDS011;35409;48.776;9.204;2022-11-15T07:48:19;12.52;;;6.40;;
49502;SDS011;35409;48.776;9.204;2022-11-15T07:50:45;12.95;;;6.35;;
49502;SDS011;35409;48.776;9.204;2022-11-15T07:53:10;12.15;;;6.68;;
49502;SDS011;35409;48.776;9.204;2022-11-15T07:55:36;12.93;;;5.72;;
49502;SDS011;35409;48.776;9.204;2022-11-15T07:58:06;11.20;;;5.50;;
49502;SDS011;35409;48.776;9.204;2022-11-15T08:00:33;12.20;;;6.00;;
49502;SDS011;35409;48.776;9.204;2022-11-15T08:03:09;9.38;;;5.80;;
49502;SDS011;35409;48.776;9.204;2022-11-15T08:05:37;11.93;;;5.88;;
49502;SDS011;35409;48.776;9.204;2022-11-15T08:08:04;13.15;;;5.15;;
49502;SDS011;35409;48.776;9.204;2022-11-15T08:10:30;13.43;;;7.05;;
49502;SDS011;35409;48.776;9.204;2022-11-15T08:12:59;10.13;;;5.45;;
49502;SDS011;35409;48.776;9.204;2022-11-15T08:17:53;12.45;;;5.88;;
49502;SDS011;35409;48.776;9.204;2022-11-15T08:20:23;13.45;;;6.43;;
49502;SDS011;35409;48.776;9.204;2022-11-15T08:22:49;12.98;;;6.30;;
49502;SDS011;35409;48.776;9.204;2022-11-15T08:25:15;10.40;;;5.88;;
49502;SDS011;35409;48.776;9.204;2022-11-15T08:27:41;10.13;;;6.20;;
49502;SDS011;35409;48.776;9.204;2022-11-15T08:30:07;10.13;;;5.40;;
49502;SDS011;35409;48.776;9.204;2022-11-15T08:32:33;10.07;;;5.75;;
49502;SDS011;35409;48.776;9.204;2022-11-15T08:34:58;11.93;;;5.93;;
49502;SDS011;35409;48.776;9.204;2022-11-15T08:37:24;9.85;;;5.80;;
49502;SDS011;35409;48.776;9.204;2022-11-15T08:39:50;12.70;;;5.80;;
49502;SDS011;35409;48.776;9.204;2022-11-15T08:42:15;9.25;;;5.70;;
49502;SDS011;35409;48.776;9.204;2022-11-15T08:44:41;10.43;;;6.32;;
49502;SDS011;35409;48.776;9.204;2022-11-15T08:47:07;14.38;;;6.63;;
49502;SDS011;35409;48.776;9.204;2022-11-15T08:49:36;12.02;;;7.00;;
49502;SDS011;35409;48.776;9.204;2022-11-15T08:52:01;11.70;;;6.30;;
49502;SDS011;35409;48.776;9.204;2022-11-15T08:54:27;10.85;;;5.97;;
49502;SDS011;35409;48.776;9.204;2022-11-15T08:56:53;11.80;;;6.55;;
49502;SDS011;35409;48.776;9.204;2022-11-15T08:59:18;9.85;;;6.28;;
49502;SDS011;35409;48.776;9.204;2022-11-15T09:01:44;15.07;;;5.97;;
49502;SDS011;35409;48.776;9.204;2022-11-15T09:04:09;9.13;;;5.90;;
49502;SDS011;35409;48.776;9.204;2022-11-15T09:06:35;11.55;;;5.70;;
49502;SDS011;35409;48.776;9.204;2022-11-15T09:09:01;15.45;;;5.82;;
49502;SDS011;35409;48.776;9.204;2022-11-15T09:11:27;10.02;;;5.68;;
49502;SDS011;35409;48.776;9.204;2022-11-15T09:13:53;13.80;;;6.15;;
49502;SDS011;35409;48.776;9.204;2022-11-15T09:16:20;13.00;;;6.38;;
49502;SDS011;35409;48.776;9.204;2022-11-15T09:18:45;13.02;;;5.90;;
49502;SDS011;35409;48.776;9.204;2022-11-15T09:21:11;16.15;;;6.55;;
49502;SDS011;35409;48.776;9.204;2022-11-15T09:23:37;12.45;;;6.28;;
49502;SDS011;35409;48.776;9.204;2022-11-15T09:26:03;11.43;;;6.28;;
49502;SDS011;35409;48.776;9.204;2022-11-15T09:28:30;11.48;;;5.47;;
49502;SDS011;35409;48.776;9.204;2022-11-15T09:30:57;11.57;;;5.63;;
49502;SDS011;35409;48.776;9.204;2022-11-15T09:33:24;10.88;;;5.65;;
49502;SDS011;35409;48.776;9.204;2022-11-15T09:35:49;9.75;;;5.15;;
49502;SDS011;35409;48.776;9.204;2022-11-15T09:38:15;10.18;;;5.32;;
49502;SDS011;35409;48.776;9.204;2022-11-15T09:40:40;11.43;;;4.88;;
49502;SDS011;35409;48.776;9.204;2022-11-15T09:48:37;9.20;;;5.75;;
49502;SDS011;35409;48.776;9.204;2022-11-15T09:51:47;7.35;;;4.82;;
49502;SDS011;35409;48.776;9.204;2022-11-15T09:57:04;11.80;;;5.78;;
49502;SDS011;35409;48.776;9.204;2022-11-15T10:02:33;7.37;;;4.60;;
49502;SDS011;35409;48.776;9.204;2022-11-15T10:05:14;11.98;;;4.43;;
49502;SDS011;35409;48.776;9.204;2022-11-15T10:10:29;7.97;;;5.00;;
49502;SDS011;35409;48.776;9.204;2022-11-15T10:13:02;9.75;;;4.75;;
49502;SDS011;35409;48.776;9.204;2022-11-15T10:15:29;9.13;;;4.82;;
49502;SDS011;35409;48.776;9.204;2022-11-15T10:20:56;9.75;;;5.03;;
49502;SDS011;35409;48.776;9.204;2022-11-15T10:23:38;7.80;;;4.85;;
49502;SDS011;35409;48.776;9.204;2022-11-15T10:26:04;10.60;;;4.50;;
49502;SDS011;35409;48.776;9.204;2022-11-15T10:28:35;10.43;;;4.70;;
49502;SDS011;35409;48.776;9.204;2022-11-15T10:31:00;14.18;;;5.10;;
49502;SDS011;35409;48.776;9.204;2022-11-15T10:41:14;15.93;;;5.82;;
49502;SDS011;35409;48.776;9.204;2022-11-15T10:46:32;8.27;;;4.53;;
49502;SDS011;35409;48.776;9.204;2022-11-15T10:49:16;7.13;;;4.03;;
49502;SDS011;35409;48.776;9.204;2022-11-15T10:51:46;10.82;;;4.90;;
49502;SDS011;35409;48.776;9.204;2022-11-15T10:54:17;9.38;;;5.30;;
49502;SDS011;35409;48.776;9.204;2022-11-15T10:56:54;9.45;;;5.07;;
49502;SDS011;35409;48.776;9.204;2022-11-15T10:59:29;12.50;;;5.73;;
49502;SDS011;35409;48.776;9.204;2022-11-15T11:01:58;12.80;;;6.00;;
49502;SDS011;35409;48.776;9.204;2022-11-15T11:04:25;13.07;;;5.65;;
49502;SDS011;35409;48.776;9.204;2022-11-15T11:06:59;9.18;;;5.70;;
49502;SDS011;35409;48.776;9.204;2022-11-15T11:09:30;9.00;;;5.07;;
49502;SDS011;35409;48.776;9.204;2022-11-15T11:12:00;10.27;;;4.90;;
49502;SDS011;35409;48.776;9.204;2022-11-15T11:14:28;13.10;;;5.72;;
49502;SDS011;35409;48.776;9.204;2022-11-15T11:19:32;8.35;;;5.05;;
49502;SDS011;35409;48.776;9.204;2022-11-15T11:22:14;8.93;;;5.10;;
49502;SDS011;35409;48.776;9.204;2022-11-15T11:33:39;9.18;;;4.88;;
49502;SDS011;35409;48.776;9.204;2022-11-15T11:36:16;12.02;;;5.28;;
49502;SDS011;35409;48.776;9.204;2022-11-15T11:39:00;8.85;;;5.47;;
49502;SDS011;35409;48.776;9.204;2022-11-15T11:41:50;12.48;;;5.15;;
49502;SDS011;35409;48.776;9.204;2022-11-15T11:47:31;8.50;;;5.38;;
49502;SDS011;35409;48.776;9.204;2022-11-15T11:50:00;10.52;;;4.82;;
49502;SDS011;35409;48.776;9.204;2022-11-15T11:58:13;13.55;;;5.05;;
49502;SDS011;35409;48.776;9.204;2022-11-15T12:01:05;8.00;;;4.85;;
49502;SDS011;35409;48.776;9.204;2022-11-15T12:03:43;11.50;;;6.57;;
49502;SDS011;35409;48.776;9.204;2022-11-15T12:09:00;9.93;;;3.97;;
49502;SDS011;35409;48.776;9.204;2022-11-15T12:11:30;9.05;;;4.18;;
49502;SDS011;35409;48.776;9.204;2022-11-15T12:14:05;10.15;;;4.40;;
49502;SDS011;35409;48.776;9.204;2022-11-15T12:16:41;10.07;;;4.00;;
49502;SDS011;35409;48.776;9.204;2022-11-15T12:19:07;6.90;;;3.53;;
49502;SDS011;35409;48.776;9.204;2022-11-15T12:24:00;7.13;;;3.25;;
49502;SDS011;35409;48.776;9.204;2022-11-15T12:26:37;10.35;;;3.25;;
49502;SDS011;35409;48.776;9.204;2022-11-15T12:31:54;8.10;;;3.70;;
49502;SDS011;35409;48.776;9.204;2022-11-15T12:36:53;4.43;;;2.78;;
49502;SDS011;35409;48.776;9.204;2022-11-15T12:39:19;8.98;;;3.15;;
49502;SDS011;35409;48.776;9.204;2022-11-15T13:02:44;8.88;;;3.00;;
49502;SDS011;35409;48.776;9.204;2022-11-15T13:17:44;7.28;;;3.67;;
49502;SDS011;35409;48.776;9.204;2022-11-15T13:22:58;4.88;;;3.28;;
49502;SDS011;35409;48.776;9.204;2022-11-15T13:30:39;4.65;;;3.25;;
49502;SDS011;35409;48.776;9.204;2022-11-15T13:33:15;4.68;;;2.70;;
49502;SDS011;35409;48.776;9.204;2022-11-15T13:35:45;4.97;;;2.85;;
49502;SDS011;35409;48.776;9.204;2022-11-15T13:38:26;5.63;;;3.00;;
49502;SDS011;35409;48.776;9.204;2022-11-15T13:40:53;4.97;;;2.25;;
49502;SDS011;35409;48.776;9.204;2022-11-15T13:48:44;6.93;;;3.13;;
49502;SDS011;35409;48.776;9.204;2022-11-15T13:51:19;5.28;;;2.90;;
49502;SDS011;35409;48.776;9.204;2022-11-15T13:56:49;9.85;;;3.30;;
49502;SDS011;35409;48.776;9.204;2022-11-15T13:59:33;7.22;;;3.70;;
49502;SDS011;35409;48.776;9.204;2022-11-15T14:02:02;8.85;;;3.63;;
49502;SDS011;35409;48.776;9.204;2022-11-15T14:04:37;7.45;;;3.63;;
49502;SDS011;35409;48.776;9.204;2022-11-15T14:07:14;6.88;;;3.22;;
49502;SDS011;35409;48.776;9.204;2022-11-15T14:09:45;10.02;;;3.33;;
49502;SDS011;35409;48.776;9.204;2022-11-15T14:12:28;10.68;;;3.58;;
49502;SDS011;35409;48.776;9.204;2022-11-15T14:14:55;5.88;;;3.58;;
49502;SDS011;35409;48.776;9.204;2022-11-15T14:19:54;10.13;;;4.05;;
49502;SDS011;35409;48.776;9.204;2022-11-15T14:22:21;8.52;;;4.13;;
49502;SDS011;35409;48.776;9.204;2022-11-15T14:27:41;6.70;;;4.10;;
49502;SDS011;35409;48.776;9.204;2022-11-15T14:30:14;6.97;;;4.13;;
49502;SDS011;35409;48.776;9.204;2022-11-15T14:32:48;6.35;;;4.25;;
49502;SDS011;35409;48.776;9.204;2022-11-15T14:35:19;7.22;;;3.70;;
49502;SDS011;35409;48.776;9.204;2022-11-15T14:37:46;4.75;;;3.53;;
49502;SDS011;35409;48.776;9.204;2022-11-15T14:40:13;6.03;;;3.50;;
49502;SDS011;35409;48.776;9.204;2022-11-15T14:42:40;5.80;;;3.50;;
49502;SDS011;35409;48.776;9.204;2022-11-15T14:45:13;6.10;;;3.90;;
49502;SDS011;35409;48.776;9.204;2022-11-15T14:47:46;5.45;;;3.67;;
49502;SDS011;35409;48.776;9.204;2022-11-15T14:52:39;7.90;;;3.72;;
49502;SDS011;35409;48.776;9.204;2022-11-15T14:55:11;5.97;;;3.60;;
49502;SDS011;35409;48.776;9.204;2022-11-15T14:57:44;10.02;;;4.25;;
49502;SDS011;35409;48.776;9.204;2022-11-15T15:00:10;7.53;;;3.65;;
49502;SDS011;35409;48.776;9.204;2022-11-15T15:02:37;6.35;;;3.72;;
49502;SDS011;35409;48.776;9.204;2022-11-15T15:07:42;7.95;;;3.42;;
49502;SDS011;35409;48.776;9.204;2022-11-15T15:10:09;6.85;;;4.05;;
49502;SDS011;35409;48.776;9.204;2022-11-15T15:12:34;9.32;;;3.88;;
49502;SDS011;35409;48.776;9.204;2022-11-15T15:15:00;6.78;;;3.53;;
49502;SDS011;35409;48.776;9.204;2022-11-15T15:17:26;6.70;;;3.90;;
49502;SDS011;35409;48.776;9.204;2022-11-15T15:19:52;6.85;;;4.22;;
49502;SDS011;35409;48.776;9.204;2022-11-15T15:22:18;5.97;;;3.78;;
49502;SDS011;35409;48.776;9.204;2022-11-15T15:24:46;9.98;;;4.30;;
49502;SDS011;35409;48.776;9.204;2022-11-15T15:27:13;10.10;;;5.05;;
49502;SDS011;35409;48.776;9.204;2022-11-15T15:29:39;8.88;;;4.38;;
49502;SDS011;35409;48.776;9.204;2022-11-15T15:32:05;7.18;;;4.22;;
49502;SDS011;35409;48.776;9.204;2022-11-15T15:34:31;9.68;;;3.95;;
49502;SDS011;35409;48.776;9.204;2022-11-15T15:39:51;9.27;;;4.75;;
49502;SDS011;35409;48.776;9.204;2022-11-15T15:42:18;7.57;;;4.90;;
49502;SDS011;35409;48.776;9.204;2022-11-15T15:44:45;7.88;;;4.32;;
49502;SDS011;35409;48.776;9.204;2022-11-15T15:47:11;7.68;;;4.65;;
49502;SDS011;35409;48.776;9.204;2022-11-15T15:49:40;6.30;;;4.07;;
49502;SDS011;35409;48.776;9.204;2022-11-15T15:52:06;9.07;;;4.43;;
49502;SDS011;35409;48.776;9.204;2022-11-15T15:54:31;8.52;;;4.75;;
49502;SDS011;35409;48.776;9.204;2022-11-15T15:56:57;5.70;;;3.72;;
49502;SDS011;35409;48.776;9.204;2022-11-15T15:59:22;10.85;;;3.50;;
49502;SDS011;35409;48.776;9.204;2022-11-15T16:01:48;6.63;;;4.10;;
49502;SDS011;35409;48.776;9.204;2022-11-15T16:04:13;9.18;;;3.90;;
49502;SDS011;35409;48.776;9.204;2022-11-15T16:06:39;8.63;;;3.63;;
49502;SDS011;35409;48.776;9.204;2022-11-15T16:09:10;7.85;;;4.28;;
49502;SDS011;35409;48.776;9.204;2022-11-15T16:11:38;10.07;;;4.78;;
49502;SDS011;35409;48.776;9.204;2022-11-15T16:14:04;8.23;;;4.43;;
49502;SDS011;35409;48.776;9.204;2022-11-15T16:16:29;8.20;;;4.07;;
49502;SDS011;35409;48.776;9.204;2022-11-15T16:18:55;8.68;;;4.22;;
49502;SDS011;35409;48.776;9.204;2022-11-15T16:21:20;7.43;;;4.07;;
49502;SDS011;35409;48.776;9.204;2022-11-15T16:23:46;7.60;;;4.30;;
49502;SDS011;35409;48.776;9.204;2022-11-15T16:26:18;7.32;;;4.72;;
49502;SDS011;35409;48.776;9.204;2022-11-15T16:28:52;6.68;;;4.07;;
49502;SDS011;35409;48.776;9.204;2022-11-15T16:31:18;8.70;;;4.15;;
49502;SDS011;35409;48.776;9.204;2022-11-15T16:33:46;12.10;;;4.72;;
49502;SDS011;35409;48.776;9.204;2022-11-15T16:36:22;9.48;;;4.70;;
49502;SDS011;35409;48.776;9.204;2022-11-15T16:38:51;9.75;;;4.55;;
49502;SDS011;35409;48.776;9.204;2022-11-15T16:41:17;6.38;;;4.00;;
49502;SDS011;35409;48.776;9.204;2022-11-15T16:43:46;5.85;;;3.78;;
49502;SDS011;35409;48.776;9.204;2022-11-15T16:46:22;6.67;;;3.97;;
49502;SDS011;35409;48.776;9.204;2022-11-15T16:48:50;8.60;;;4.40;;
49502;SDS011;35409;48.776;9.204;2022-11-15T16:51:16;8.25;;;4.30;;
49502;SDS011;35409;48.776;9.204;2022-11-15T16:53:41;7.82;;;4.43;;
49502;SDS011;35409;48.776;9.204;2022-11-15T16:56:16;5.28;;;3.40;;
49502;SDS011;35409;48.776;9.204;2022-11-15T16:58:46;9.63;;;3.70;;
49502;SDS011;35409;48.776;9.204;2022-11-15T17:01:18;8.00;;;4.40;;
49502;SDS011;35409;48.776;9.204;2022-11-15T17:03:49;8.80;;;3.70;;
49502;SDS011;35409;48.776;9.204;2022-11-15T17:06:14;10.52;;;4.18;;
49502;SDS011;35409;48.776;9.204;2022-11-15T17:08:42;10.23;;;4.90;;
49502;SDS011;35409;48.776;9.204;2022-11-15T17:11:08;9.38;;;3.97;;
49502;SDS011;35409;48.776;9.204;2022-11-15T17:13:35;7.32;;;4.20;;
49502;SDS011;35409;48.776;9.204;2022-11-15T17:16:05;7.20;;;4.57;;
49502;SDS011;35409;48.776;9.204;2022-11-15T17:18:32;7.72;;;3.95;;
49502;SDS011;35409;48.776;9.204;2022-11-15T17:21:02;6.38;;;4.28;;
49502;SDS011;35409;48.776;9.204;2022-11-15T17:23:32;5.50;;;3.88;;
49502;SDS011;35409;48.776;9.204;2022-11-15T17:26:02;7.97;;;3.80;;
49502;SDS011;35409;48.776;9.204;2022-11-15T17:28:30;11.48;;;4.55;;
49502;SDS011;35409;48.776;9.204;2022-11-15T17:30:58;9.70;;;4.10;;